createdAt,value
2023-01-04T00:01:20.061Z,10.73
2023-01-04T00:04:23.042Z,11.80
2023-01-04T00:07:25.584Z,11.02
2023-01-04T00:10:29.121Z,11.65
2023-01-04T00:13:32.364Z,12.30
2023-01-04T00:16:35.287Z,11.48
2023-01-04T00:19:38.462Z,11.40
2023-01-04T00:22:41.318Z,12.70
2023-01-04T00:25:44.169Z,12.43
2023-01-04T00:28:53.855Z,9.43
2023-01-04T00:31:57.431Z,10.85
2023-01-04T00:35:00.311Z,8.30
2023-01-04T00:38:02.849Z,9.60
2023-01-04T00:41:06.673Z,8.20
2023-01-04T00:44:10.214Z,7.87
2023-01-04T00:47:13.230Z,6.03
2023-01-04T00:50:16.475Z,6.57
2023-01-04T00:53:23.424Z,7.00
2023-01-04T00:56:26.069Z,6.85
2023-01-04T00:59:29.425Z,8.52
2023-01-04T01:02:32.045Z,8.32
2023-01-04T01:05:35.829Z,7.43
2023-01-04T01:08:38.766Z,7.53
2023-01-04T01:11:41.923Z,7.68
2023-01-04T01:14:44.641Z,7.05
2023-01-04T01:17:47.454Z,7.80
2023-01-04T01:20:50.821Z,7.23
2023-01-04T01:23:55.299Z,7.80
2023-01-04T01:26:58.060Z,7.97
2023-01-04T01:30:01.002Z,7.62
2023-01-04T01:33:03.766Z,7.60
2023-01-04T01:36:07.831Z,8.00
2023-01-04T01:39:10.362Z,8.23
2023-01-04T01:42:20.793Z,11.02
2023-01-04T01:45:29.447Z,7.18
2023-01-04T01:48:32.295Z,9.38
2023-01-04T01:51:35.403Z,7.00
2023-01-04T01:54:44.920Z,8.13
2023-01-04T01:57:50.044Z,6.47
2023-01-04T02:00:54.089Z,8.45
2023-01-04T02:03:57.368Z,7.03
2023-01-04T02:07:01.130Z,5.80
2023-01-04T02:10:04.087Z,5.70
2023-01-04T02:13:12.901Z,5.93
2023-01-04T02:16:22.095Z,6.12
2023-01-04T02:20:02.651Z,8.93
2023-01-04T02:23:12.249Z,8.47
2023-01-04T02:26:53.250Z,6.07
2023-01-04T02:30:53.747Z,7.65
2023-01-04T02:34:24.839Z,7.30
2023-01-04T02:37:30.387Z,7.47
2023-01-04T02:40:43.487Z,5.63
2023-01-04T02:44:13.865Z,8.65
2023-01-04T02:47:40.175Z,6.97
2023-01-04T02:50:53.030Z,7.22
2023-01-04T02:53:58.181Z,6.95
2023-01-04T02:57:22.304Z,10.00
2023-01-04T03:01:12.074Z,7.62
2023-01-04T03:04:55.085Z,8.20
2023-01-04T03:08:17.843Z,6.78
2023-01-04T03:11:39.855Z,8.15
2023-01-04T03:14:51.668Z,7.40
2023-01-04T03:18:00.248Z,8.20
2023-01-04T03:21:05.430Z,7.32
2023-01-04T03:24:27.429Z,7.32
2023-01-04T03:27:49.122Z,7.50
2023-01-04T03:31:20.169Z,8.07
2023-01-04T03:34:41.693Z,7.78
2023-01-04T03:38:28.684Z,7.43
2023-01-04T03:42:22.618Z,8.10
2023-01-04T03:45:49.580Z,6.12
2023-01-04T03:49:24.157Z,5.43
2023-01-04T03:52:28.664Z,6.93
2023-01-04T03:55:31.804Z,7.28
2023-01-04T03:58:34.539Z,6.45
2023-01-04T04:01:37.669Z,6.72
2023-01-04T04:04:59.981Z,7.70
2023-01-04T04:08:21.843Z,7.78
2023-01-04T04:11:31.844Z,9.20
2023-01-04T04:14:35.004Z,7.80
2023-01-04T04:17:38.111Z,6.68
2023-01-04T04:20:43.747Z,5.87
2023-01-04T04:23:46.947Z,6.90
2023-01-04T04:26:49.973Z,8.07
2023-01-04T04:29:53.511Z,7.82
2023-01-04T04:32:56.385Z,7.45
2023-01-04T04:35:59.267Z,9.27
2023-01-04T04:39:02.077Z,7.35
2023-01-04T04:42:04.967Z,9.55
2023-01-04T04:45:08.203Z,8.77
2023-01-04T04:48:11.253Z,8.88
2023-01-04T04:51:14.379Z,8.67
2023-01-04T04:54:19.981Z,9.05
2023-01-04T04:57:22.528Z,11.23
2023-01-04T05:00:25.573Z,6.93
2023-01-04T05:03:28.344Z,10.13
2023-01-04T05:06:31.267Z,8.33
2023-01-04T05:09:33.961Z,10.95
2023-01-04T05:12:57.907Z,13.38
2023-01-04T05:16:02.070Z,9.18
2023-01-04T05:19:05.224Z,8.43
2023-01-04T05:22:07.922Z,9.13
2023-01-04T05:25:12.138Z,7.78
2023-01-04T05:28:14.709Z,8.27
2023-01-04T05:31:18.234Z,7.10
2023-01-04T05:34:22.485Z,9.13
2023-01-04T05:37:25.985Z,8.03
2023-01-04T05:40:30.385Z,7.72
2023-01-04T05:43:33.244Z,7.12
2023-01-04T05:46:35.978Z,8.73
2023-01-04T05:49:38.955Z,8.23
2023-01-04T05:52:41.813Z,9.67
2023-01-04T05:55:45.607Z,9.70
2023-01-04T05:58:48.226Z,9.38
2023-01-04T06:01:51.639Z,9.65
2023-01-04T06:04:58.749Z,8.80
2023-01-04T06:08:01.866Z,9.13
2023-01-04T06:11:05.021Z,9.80
2023-01-04T06:14:07.629Z,11.98
2023-01-04T06:17:10.485Z,9.15
2023-01-04T06:20:13.677Z,8.45
2023-01-04T06:23:16.742Z,8.40
2023-01-04T06:26:19.536Z,8.43
2023-01-04T06:29:22.550Z,8.98
2023-01-04T06:32:25.362Z,9.00
2023-01-04T06:35:28.223Z,6.62
2023-01-04T06:38:31.656Z,7.30
2023-01-04T06:41:34.708Z,5.43
2023-01-04T06:44:37.191Z,4.97
2023-01-04T06:47:42.217Z,5.53
2023-01-04T06:50:45.296Z,7.65
2023-01-04T06:53:48.691Z,9.97
2023-01-04T06:56:51.260Z,10.70
2023-01-04T06:59:54.132Z,10.70
2023-01-04T07:03:13.579Z,7.43
2023-01-04T07:06:18.146Z,7.95
2023-01-04T07:09:20.667Z,9.40
2023-01-04T07:12:23.523Z,7.55
2023-01-04T07:15:38.846Z,6.62
2023-01-04T07:18:43.322Z,6.45
2023-01-04T07:21:45.820Z,5.87
2023-01-04T07:24:48.937Z,6.53
2023-01-04T07:27:53.234Z,6.50
2023-01-04T07:30:56.509Z,5.95
2023-01-04T07:33:59.107Z,8.48
2023-01-04T07:37:01.953Z,7.53
2023-01-04T07:40:05.853Z,10.30
2023-01-04T07:43:10.052Z,10.98
2023-01-04T07:46:12.648Z,12.43
2023-01-04T07:49:18.186Z,21.95
2023-01-04T07:52:21.398Z,22.52
2023-01-04T07:55:24.345Z,24.50
2023-01-04T07:58:31.980Z,20.27
2023-01-04T08:01:38.018Z,21.15
2023-01-04T08:04:41.068Z,15.57
2023-01-04T08:07:43.744Z,14.68
2023-01-04T08:10:49.547Z,13.37
2023-01-04T08:13:52.555Z,12.82
2023-01-04T08:16:55.450Z,15.00
2023-01-04T08:19:58.076Z,15.45
2023-01-04T08:23:02.512Z,18.23
2023-01-04T08:26:07.898Z,18.63
2023-01-04T08:29:11.478Z,21.65
2023-01-04T08:32:14.408Z,16.42
2023-01-04T08:35:17.150Z,16.45
2023-01-04T08:38:58.300Z,17.25
2023-01-04T08:42:06.721Z,22.40
2023-01-04T08:45:13.923Z,17.50
2023-01-04T08:48:22.630Z,19.08
2023-01-04T08:51:27.084Z,17.17
2023-01-04T08:54:30.173Z,11.57
2023-01-04T08:57:34.379Z,14.70
2023-01-04T09:00:37.863Z,13.75
2023-01-04T09:03:41.951Z,12.30
2023-01-04T09:06:45.028Z,11.15
2023-01-04T09:09:47.704Z,25.92
2023-01-04T09:12:51.125Z,21.10
2023-01-04T09:15:53.905Z,22.85
2023-01-04T09:18:57.298Z,17.65
2023-01-04T09:22:00.129Z,13.02
2023-01-04T09:25:03.525Z,12.77
2023-01-04T09:28:06.322Z,19.27
2023-01-04T09:31:15.578Z,13.48
2023-01-04T09:34:18.331Z,12.05
2023-01-04T09:37:21.397Z,15.27
2023-01-04T09:40:34.755Z,12.55
2023-01-04T09:43:45.972Z,11.73
2023-01-04T09:46:52.417Z,12.02
2023-01-04T09:50:18.614Z,12.93
2023-01-04T09:53:29.206Z,15.45
2023-01-04T09:56:34.128Z,12.80
2023-01-04T09:59:36.738Z,14.40
2023-01-04T10:02:43.345Z,11.18
2023-01-04T10:05:46.582Z,9.05
2023-01-04T10:08:49.308Z,10.45
2023-01-04T10:12:11.176Z,8.95
2023-01-04T10:15:26.518Z,8.53
2023-01-04T10:19:50.976Z,10.52
2023-01-04T10:21:59.104Z,8.25
2023-01-04T10:25:22.540Z,9.68
2023-01-04T10:28:49.611Z,11.18
2023-01-04T10:32:03.863Z,7.43
2023-01-04T10:35:19.509Z,9.48
2023-01-04T10:38:26.100Z,6.82
2023-01-04T10:41:35.209Z,7.03
2023-01-04T10:45:09.087Z,8.15
2023-01-04T10:48:23.345Z,6.93
2023-01-04T10:51:54.687Z,6.43
2023-01-04T10:55:11.469Z,6.00
2023-01-04T10:59:10.440Z,7.87
2023-01-04T11:02:19.241Z,6.47
2023-01-04T11:05:34.142Z,7.80
2023-01-04T11:08:43.125Z,6.15
2023-01-04T11:11:46.924Z,5.37
2023-01-04T11:14:53.132Z,7.00
2023-01-04T11:17:56.137Z,5.37
2023-01-04T11:20:59.226Z,5.20
2023-01-04T11:24:30.370Z,3.80
2023-01-04T11:27:30.269Z,4.28
2023-01-04T11:30:43.108Z,5.55
2023-01-04T11:34:00.409Z,4.32
2023-01-04T11:37:02.999Z,5.67
2023-01-04T11:40:20.995Z,4.65
2023-01-04T11:43:25.564Z,4.80
2023-01-04T11:46:29.716Z,6.50
2023-01-04T11:49:36.620Z,13.88
2023-01-04T11:52:41.344Z,8.53
2023-01-04T11:55:44.040Z,4.65
2023-01-04T11:59:12.354Z,4.18
2023-01-04T12:02:59.689Z,3.78
2023-01-04T12:05:48.955Z,4.82
2023-01-04T12:08:51.643Z,5.27
2023-01-04T12:11:56.729Z,7.32
2023-01-04T12:15:05.458Z,6.82
2023-01-04T12:18:15.866Z,5.20
2023-01-04T12:21:26.337Z,5.53
2023-01-04T12:24:31.616Z,4.97
2023-01-04T12:27:35.758Z,6.43
2023-01-04T12:30:44.437Z,5.97
2023-01-04T12:33:56.224Z,10.85
2023-01-04T12:37:05.179Z,9.77
2023-01-04T12:40:46.589Z,6.23
2023-01-04T12:43:50.179Z,76.12
2023-01-04T12:47:11.423Z,24.92
2023-01-04T12:50:31.910Z,14.02
2023-01-04T12:53:53.314Z,30.37
2023-01-04T12:57:23.887Z,19.80
2023-01-04T13:00:51.075Z,10.63
2023-01-04T13:04:04.230Z,11.60
2023-01-04T13:07:30.185Z,21.67
2023-01-04T13:10:43.078Z,50.70
2023-01-04T13:14:10.474Z,34.60
2023-01-04T13:17:19.966Z,15.43
2023-01-04T13:20:25.680Z,14.40
2023-01-04T13:23:29.832Z,11.35
2023-01-04T13:26:41.187Z,10.40
2023-01-04T13:29:44.190Z,10.93
2023-01-04T13:33:24.155Z,15.35
2023-01-04T13:36:12.496Z,25.10
2023-01-04T13:39:15.227Z,43.10
2023-01-04T13:42:30.457Z,24.87
2023-01-04T13:45:37.608Z,15.70
2023-01-04T13:48:42.588Z,14.02
2023-01-04T13:51:45.099Z,14.32
2023-01-04T13:54:48.167Z,12.98
2023-01-04T13:57:58.499Z,12.55
2023-01-04T14:01:05.952Z,12.10
2023-01-04T14:04:27.769Z,13.73
2023-01-04T14:07:30.396Z,11.05
2023-01-04T14:10:33.569Z,8.85
2023-01-04T14:13:36.088Z,7.57
2023-01-04T14:16:38.967Z,8.57
2023-01-04T14:19:49.576Z,8.55
2023-01-04T14:22:56.111Z,11.38
2023-01-04T14:25:58.943Z,8.70
2023-01-04T14:29:21.020Z,10.80
2023-01-04T14:32:23.913Z,9.80
2023-01-04T14:35:27.930Z,12.65
2023-01-04T14:38:31.247Z,11.90
2023-01-04T14:41:51.670Z,13.57
2023-01-04T14:44:54.737Z,16.77
2023-01-04T14:47:57.539Z,17.77
2023-01-04T14:51:00.588Z,15.68
2023-01-04T14:54:06.622Z,20.20
2023-01-04T14:57:09.416Z,20.23
2023-01-04T15:00:18.882Z,19.87
2023-01-04T15:03:22.031Z,18.73
2023-01-04T15:06:25.510Z,19.42
2023-01-04T15:09:28.714Z,22.45
2023-01-04T15:12:31.681Z,21.40
2023-01-04T15:15:34.227Z,20.85
2023-01-04T15:18:37.494Z,23.23
2023-01-04T15:21:41.561Z,28.87
2023-01-04T15:24:44.728Z,24.83
2023-01-04T15:27:47.350Z,16.70
2023-01-04T15:30:50.357Z,24.40
2023-01-04T15:33:52.864Z,27.83
2023-01-04T15:36:55.828Z,23.45
2023-01-04T15:40:02.701Z,29.77
2023-01-04T15:43:06.619Z,27.35
2023-01-04T15:46:09.264Z,30.02
2023-01-04T15:49:17.248Z,29.83
2023-01-04T15:52:20.697Z,30.52
2023-01-04T15:55:23.802Z,33.97
2023-01-04T15:58:26.513Z,33.90
2023-01-04T16:01:29.588Z,36.97
2023-01-04T16:04:39.833Z,31.23
2023-01-04T16:07:43.340Z,33.38
2023-01-04T16:10:46.176Z,35.80
2023-01-04T16:13:50.372Z,30.42
2023-01-04T16:16:53.539Z,33.00
2023-01-04T16:19:56.124Z,35.03
2023-01-04T16:22:58.966Z,33.15
2023-01-04T16:26:10.117Z,30.30
2023-01-04T16:29:13.271Z,35.38
2023-01-04T16:32:16.506Z,30.88
2023-01-04T16:35:19.525Z,32.80
2023-01-04T16:38:22.662Z,32.15
2023-01-04T16:41:25.626Z,32.10
2023-01-04T16:44:28.245Z,34.80
2023-01-04T16:47:38.199Z,36.10
2023-01-04T16:50:40.868Z,43.00
2023-01-04T16:53:43.983Z,36.78
2023-01-04T16:56:49.227Z,39.42
2023-01-04T16:59:52.305Z,38.40
2023-01-04T17:02:55.142Z,37.15
2023-01-04T17:05:58.050Z,35.37
2023-01-04T17:09:03.246Z,39.15
2023-01-04T17:15:44.798Z,35.65
2023-01-04T17:18:49.330Z,35.40
2023-01-04T17:21:52.173Z,41.53
2023-01-04T17:24:55.126Z,40.12
2023-01-04T17:27:57.806Z,37.25
2023-01-04T17:31:05.648Z,42.13
2023-01-04T17:34:11.343Z,40.63
2023-01-04T17:37:15.410Z,33.70
2023-01-04T17:40:22.986Z,33.47
2023-01-04T17:43:26.486Z,32.92
2023-01-04T17:46:32.079Z,32.50
2023-01-04T17:49:34.999Z,30.40
2023-01-04T17:52:37.784Z,29.67
2023-01-04T17:55:40.605Z,27.65
2023-01-04T17:58:44.297Z,26.10
2023-01-04T18:01:47.711Z,26.40
2023-01-04T18:04:51.995Z,26.27
2023-01-04T18:07:54.535Z,25.13
2023-01-04T18:11:07.264Z,22.58
2023-01-04T18:14:14.109Z,28.62
2023-01-04T18:17:17.575Z,24.42
2023-01-04T18:20:24.882Z,29.52
2023-01-04T18:23:29.484Z,28.33
2023-01-04T18:26:41.685Z,26.95
2023-01-04T18:29:51.164Z,31.48
2023-01-04T18:32:53.965Z,31.05
2023-01-04T18:36:02.200Z,31.02
2023-01-04T18:39:05.282Z,32.27
2023-01-04T18:42:08.604Z,33.17
2023-01-04T18:45:11.597Z,34.75
2023-01-04T18:48:14.547Z,33.00
2023-01-04T18:51:17.714Z,29.90
2023-01-04T18:54:21.952Z,32.63
2023-01-04T18:57:24.912Z,28.08
2023-01-04T19:00:29.924Z,42.33
2023-01-04T19:03:34.956Z,34.83
2023-01-04T19:06:38.304Z,33.53
2023-01-04T19:09:42.671Z,30.60
2023-01-04T19:12:46.312Z,25.27
2023-01-04T19:15:49.146Z,26.60
2023-01-04T19:18:52.355Z,27.67
2023-01-04T19:21:55.121Z,29.33
2023-01-04T19:24:58.267Z,28.13
2023-01-04T19:28:01.111Z,30.00
2023-01-04T19:31:08.789Z,27.65
2023-01-04T19:34:11.767Z,23.83
2023-01-04T19:37:16.136Z,25.80
2023-01-04T19:40:19.383Z,28.90
2023-01-04T19:43:22.631Z,29.70
2023-01-04T19:46:25.594Z,27.40
2023-01-04T19:49:29.085Z,27.75
2023-01-04T19:52:35.329Z,29.83
2023-01-04T19:55:41.341Z,23.40
2023-01-04T19:58:45.472Z,27.58
2023-01-04T20:01:49.132Z,25.23
2023-01-04T20:04:52.356Z,26.37
2023-01-04T20:07:55.241Z,27.40
2023-01-04T20:10:59.814Z,25.13
2023-01-04T20:14:02.357Z,26.05
2023-01-04T20:17:06.524Z,27.15
2023-01-04T20:20:09.680Z,24.60
2023-01-04T20:23:13.363Z,27.40
2023-01-04T20:26:18.360Z,25.13
2023-01-04T20:29:23.809Z,30.48
2023-01-04T20:32:26.463Z,27.23
2023-01-04T20:35:30.197Z,27.08
2023-01-04T20:38:39.958Z,24.65
2023-01-04T20:42:03.624Z,26.17
2023-01-04T20:45:06.851Z,25.08
2023-01-04T20:48:10.230Z,25.12
2023-01-04T20:51:15.286Z,25.50
2023-01-04T20:54:18.519Z,24.23
2023-01-04T20:57:21.194Z,25.47
2023-01-04T21:00:24.446Z,25.95
2023-01-04T21:03:27.042Z,25.75
2023-01-04T21:06:32.064Z,26.40
2023-01-04T21:09:34.896Z,24.70
2023-01-04T21:12:38.821Z,25.60
2023-01-04T21:15:41.602Z,24.50
2023-01-04T21:18:44.942Z,30.60
2023-01-04T21:21:47.754Z,25.45
2023-01-04T21:24:50.686Z,26.15
2023-01-04T21:27:53.374Z,24.57
2023-01-04T21:30:56.392Z,27.52
2023-01-04T21:33:59.001Z,25.65
2023-01-04T21:37:01.815Z,25.80
2023-01-04T21:40:05.270Z,24.98
2023-01-04T21:43:12.306Z,26.67
2023-01-04T21:46:15.851Z,25.33
2023-01-04T21:49:19.189Z,24.85
2023-01-04T21:52:22.347Z,22.95
2023-01-04T21:55:29.415Z,26.75
2023-01-04T21:58:35.714Z,24.40
2023-01-04T22:01:38.811Z,22.58
2023-01-04T22:04:42.546Z,24.95
2023-01-04T22:07:45.422Z,24.42
2023-01-04T22:10:53.454Z,24.65
2023-01-04T22:13:56.300Z,27.07
2023-01-04T22:16:59.249Z,33.42
2023-01-04T22:20:01.978Z,27.83
2023-01-04T22:23:05.257Z,23.67
2023-01-04T22:26:07.782Z,26.95
2023-01-04T22:29:11.473Z,24.27
2023-01-04T22:32:14.168Z,26.33
2023-01-04T22:35:17.543Z,26.60
2023-01-04T22:38:20.199Z,24.48
2023-01-04T22:41:26.712Z,24.48
2023-01-04T22:44:29.317Z,24.20
2023-01-04T22:47:35.898Z,25.30
2023-01-04T22:50:39.259Z,25.15
2023-01-04T22:53:42.523Z,20.83
2023-01-04T22:56:45.052Z,21.98
2023-01-04T22:59:47.975Z,24.93
2023-01-04T23:02:51.529Z,23.33
2023-01-04T23:05:55.063Z,20.80
2023-01-04T23:09:04.132Z,25.42
2023-01-04T23:12:07.342Z,20.83
2023-01-04T23:15:10.488Z,20.87
2023-01-04T23:18:13.366Z,20.65
2023-01-04T23:21:16.614Z,20.00
2023-01-04T23:24:19.576Z,21.17
2023-01-04T23:27:22.227Z,21.12
2023-01-04T23:30:25.219Z,22.17
2023-01-04T23:33:33.973Z,21.70
2023-01-04T23:36:41.698Z,21.73
2023-01-04T23:39:44.715Z,24.23
2023-01-04T23:42:47.694Z,21.70
2023-01-04T23:45:50.305Z,18.77
2023-01-04T23:48:53.059Z,19.17
2023-01-04T23:51:56.641Z,20.05
2023-01-04T23:54:59.547Z,19.50
2023-01-04T23:58:02.087Z,22.73
